sensor_id;sensor_type;location;lat;lon;timestamp;pressure;altitude;pressure_sealevel;temperature
40624;BMP280;26325;48.594;11.650;2022-10-18T00:01:26;97634.06;;;11.23
40624;BMP280;26325;48.594;11.650;2022-10-18T00:03:52;97633.50;;;11.22
40624;BMP280;26325;48.594;11.650;2022-10-18T00:06:17;97629.78;;;11.18
40624;BMP280;26325;48.594;11.650;2022-10-18T00:08:43;97635.91;;;11.05
40624;BMP280;26325;48.594;11.650;2022-10-18T00:11:09;97633.91;;;11.36
40624;BMP280;26325;48.594;11.650;2022-10-18T00:13:35;97641.81;;;11.41
40624;BMP280;26325;48.594;11.650;2022-10-18T00:16:03;97640.16;;;11.29
40624;BMP280;26325;48.594;11.650;2022-10-18T00:18:29;97638.88;;;11.20
40624;BMP280;26325;48.594;11.650;2022-10-18T00:20:59;97636.75;;;11.35
40624;BMP280;26325;48.594;11.650;2022-10-18T00:23:25;97634.69;;;11.37
40624;BMP280;26325;48.594;11.650;2022-10-18T00:25:59;97636.44;;;11.25
40624;BMP280;26325;48.594;11.650;2022-10-18T00:28:25;97639.19;;;11.12
40624;BMP280;26325;48.594;11.650;2022-10-18T00:30:50;97631.22;;;11.31
40624;BMP280;26325;48.594;11.650;2022-10-18T00:33:16;97637.69;;;11.51
40624;BMP280;26325;48.594;11.650;2022-10-18T00:35:41;97635.97;;;11.45
40624;BMP280;26325;48.594;11.650;2022-10-18T00:38:06;97626.97;;;11.19
40624;BMP280;26325;48.594;11.650;2022-10-18T00:40:32;97623.72;;;10.95
40624;BMP280;26325;48.594;11.650;2022-10-18T00:42:57;97620.72;;;10.80
40624;BMP280;26325;48.594;11.650;2022-10-18T00:45:24;97618.03;;;10.86
40624;BMP280;26325;48.594;11.650;2022-10-18T00:47:56;97612.00;;;11.39
40624;BMP280;26325;48.594;11.650;2022-10-18T00:50:22;97612.28;;;11.71
40624;BMP280;26325;48.594;11.650;2022-10-18T00:52:52;97612.78;;;11.39
40624;BMP280;26325;48.594;11.650;2022-10-18T00:55:18;97610.78;;;10.95
40624;BMP280;26325;48.594;11.650;2022-10-18T00:57:46;97614.84;;;10.73
40624;BMP280;26325;48.594;11.650;2022-10-18T01:00:11;97611.09;;;10.69
40624;BMP280;26325;48.594;11.650;2022-10-18T01:02:38;97616.94;;;10.65
40624;BMP280;26325;48.594;11.650;2022-10-18T01:05:05;97626.59;;;10.69
40624;BMP280;26325;48.594;11.650;2022-10-18T01:15:53;97618.53;;;10.95
40624;BMP280;26325;48.594;11.650;2022-10-18T01:21:15;97626.09;;;10.61
40624;BMP280;26325;48.594;11.650;2022-10-18T01:34:08;97631.63;;;10.65
40624;BMP280;26325;48.594;11.650;2022-10-18T01:36:41;97633.13;;;10.37
40624;BMP280;26325;48.594;11.650;2022-10-18T01:39:11;97630.03;;;10.28
40624;BMP280;26325;48.594;11.650;2022-10-18T01:41:39;97627.88;;;10.78
40624;BMP280;26325;48.594;11.650;2022-10-18T01:44:07;97638.00;;;10.97
40624;BMP280;26325;48.594;11.650;2022-10-18T01:46:34;97640.59;;;10.80
40624;BMP280;26325;48.594;11.650;2022-10-18T01:49:00;97646.25;;;10.53
40624;BMP280;26325;48.594;11.650;2022-10-18T01:51:29;97633.22;;;10.66
40624;BMP280;26325;48.594;11.650;2022-10-18T01:53:55;97629.59;;;10.84
40624;BMP280;26325;48.594;11.650;2022-10-18T02:01:42;97638.63;;;10.23
40624;BMP280;26325;48.594;11.650;2022-10-18T02:04:19;97632.19;;;10.08
40624;BMP280;26325;48.594;11.650;2022-10-18T02:06:48;97640.59;;;10.45
40624;BMP280;26325;48.594;11.650;2022-10-18T02:09:18;97624.31;;;10.62
40624;BMP280;26325;48.594;11.650;2022-10-18T02:11:47;97628.09;;;10.77
40624;BMP280;26325;48.594;11.650;2022-10-18T02:14:16;97621.09;;;10.84
40624;BMP280;26325;48.594;11.650;2022-10-18T02:16:53;97618.38;;;11.07
40624;BMP280;26325;48.594;11.650;2022-10-18T02:19:32;97619.03;;;11.03
40624;BMP280;26325;48.594;11.650;2022-10-18T02:22:01;97621.78;;;10.90
40624;BMP280;26325;48.594;11.650;2022-10-18T02:24:32;97628.88;;;10.77
40624;BMP280;26325;48.594;11.650;2022-10-18T02:26:58;97621.00;;;10.55
40624;BMP280;26325;48.594;11.650;2022-10-18T02:29:25;97624.09;;;10.46
40624;BMP280;26325;48.594;11.650;2022-10-18T02:31:54;97620.78;;;10.39
40624;BMP280;26325;48.594;11.650;2022-10-18T02:34:26;97612.84;;;10.40
40624;BMP280;26325;48.594;11.650;2022-10-18T02:36:57;97622.88;;;10.66
40624;BMP280;26325;48.594;11.650;2022-10-18T02:41:56;97632.25;;;10.43
40624;BMP280;26325;48.594;11.650;2022-10-18T02:44:21;97629.03;;;10.29
40624;BMP280;26325;48.594;11.650;2022-10-18T02:46:47;97621.50;;;10.28
40624;BMP280;26325;48.594;11.650;2022-10-18T02:49:13;97611.25;;;10.22
40624;BMP280;26325;48.594;11.650;2022-10-18T02:51:38;97625.97;;;10.74
40624;BMP280;26325;48.594;11.650;2022-10-18T02:54:04;97619.94;;;10.80
40624;BMP280;26325;48.594;11.650;2022-10-18T02:56:29;97632.94;;;10.56
40624;BMP280;26325;48.594;11.650;2022-10-18T02:58:55;97627.38;;;10.35
40624;BMP280;26325;48.594;11.650;2022-10-18T03:01:21;97628.13;;;10.18
40624;BMP280;26325;48.594;11.650;2022-10-18T03:03:48;97631.47;;;10.42
40624;BMP280;26325;48.594;11.650;2022-10-18T03:06:13;97631.47;;;10.60
40624;BMP280;26325;48.594;11.650;2022-10-18T03:08:39;97632.75;;;10.86
40624;BMP280;26325;48.594;11.650;2022-10-18T03:11:05;97619.78;;;10.92
40624;BMP280;26325;48.594;11.650;2022-10-18T03:13:33;97623.88;;;10.82
40624;BMP280;26325;48.594;11.650;2022-10-18T03:15:59;97635.84;;;10.77
40624;BMP280;26325;48.594;11.650;2022-10-18T03:18:25;97629.75;;;10.71
40624;BMP280;26325;48.594;11.650;2022-10-18T03:20:51;97631.53;;;10.36
40624;BMP280;26325;48.594;11.650;2022-10-18T03:23:17;97641.97;;;10.47
40624;BMP280;26325;48.594;11.650;2022-10-18T03:25:43;97629.47;;;10.79
40624;BMP280;26325;48.594;11.650;2022-10-18T03:28:09;97634.63;;;10.44
40624;BMP280;26325;48.594;11.650;2022-10-18T03:30:34;97630.03;;;10.28
40624;BMP280;26325;48.594;11.650;2022-10-18T03:33:00;97641.81;;;10.60
40624;BMP280;26325;48.594;11.650;2022-10-18T03:35:25;97633.31;;;11.05
40624;BMP280;26325;48.594;11.650;2022-10-18T03:37:51;97638.38;;;11.01
40624;BMP280;26325;48.594;11.650;2022-10-18T03:40:16;97640.47;;;10.75
40624;BMP280;26325;48.594;11.650;2022-10-18T03:42:43;97646.44;;;10.58
40624;BMP280;26325;48.594;11.650;2022-10-18T03:45:08;97645.47;;;10.52
40624;BMP280;26325;48.594;11.650;2022-10-18T03:47:34;97629.19;;;10.52
40624;BMP280;26325;48.594;11.650;2022-10-18T03:49:59;97625.75;;;10.40
40624;BMP280;26325;48.594;11.650;2022-10-18T03:52:25;97634.13;;;10.53
40624;BMP280;26325;48.594;11.650;2022-10-18T03:54:50;97636.84;;;10.58
40624;BMP280;26325;48.594;11.650;2022-10-18T03:57:16;97641.00;;;10.42
40624;BMP280;26325;48.594;11.650;2022-10-18T03:59:41;97644.84;;;10.57
40624;BMP280;26325;48.594;11.650;2022-10-18T04:02:07;97637.44;;;10.43
40624;BMP280;26325;48.594;11.650;2022-10-18T04:04:33;97644.34;;;10.25
40624;BMP280;26325;48.594;11.650;2022-10-18T04:06:58;97634.81;;;10.25
40624;BMP280;26325;48.594;11.650;2022-10-18T04:09:23;97644.31;;;10.31
40624;BMP280;26325;48.594;11.650;2022-10-18T04:11:50;97634.50;;;10.39
40624;BMP280;26325;48.594;11.650;2022-10-18T04:14:15;97641.88;;;10.53
40624;BMP280;26325;48.594;11.650;2022-10-18T04:16:41;97633.22;;;10.83
40624;BMP280;26325;48.594;11.650;2022-10-18T04:19:07;97624.00;;;10.87
40624;BMP280;26325;48.594;11.650;2022-10-18T04:21:32;97629.06;;;10.65
40624;BMP280;26325;48.594;11.650;2022-10-18T04:23:58;97631.88;;;11.09
40624;BMP280;26325;48.594;11.650;2022-10-18T04:26:23;97628.16;;;11.05
40624;BMP280;26325;48.594;11.650;2022-10-18T04:28:49;97626.09;;;11.25
40624;BMP280;26325;48.594;11.650;2022-10-18T04:31:15;97634.06;;;11.41
40624;BMP280;26325;48.594;11.650;2022-10-18T04:33:40;97637.88;;;11.39
40624;BMP280;26325;48.594;11.650;2022-10-18T04:36:06;97636.63;;;10.95
40624;BMP280;26325;48.594;11.650;2022-10-18T04:38:32;97626.88;;;10.62
40624;BMP280;26325;48.594;11.650;2022-10-18T04:40:57;97632.84;;;10.45
40624;BMP280;26325;48.594;11.650;2022-10-18T04:43:23;97631.63;;;10.29
40624;BMP280;26325;48.594;11.650;2022-10-18T04:45:51;97640.34;;;10.28
40624;BMP280;26325;48.594;11.650;2022-10-18T04:48:17;97631.25;;;10.26
40624;BMP280;26325;48.594;11.650;2022-10-18T04:50:42;97622.50;;;10.27
40624;BMP280;26325;48.594;11.650;2022-10-18T04:53:08;97617.53;;;10.26
40624;BMP280;26325;48.594;11.650;2022-10-18T04:55:34;97615.22;;;10.18
40624;BMP280;26325;48.594;11.650;2022-10-18T04:57:59;97617.94;;;10.05
40624;BMP280;26325;48.594;11.650;2022-10-18T05:00:25;97615.50;;;10.10
40624;BMP280;26325;48.594;11.650;2022-10-18T05:02:57;97622.41;;;10.16
40624;BMP280;26325;48.594;11.650;2022-10-18T05:05:23;97621.69;;;10.27
40624;BMP280;26325;48.594;11.650;2022-10-18T05:07:51;97622.63;;;10.14
40624;BMP280;26325;48.594;11.650;2022-10-18T05:10:18;97621.56;;;10.22
40624;BMP280;26325;48.594;11.650;2022-10-18T05:12:44;97619.13;;;10.44
40624;BMP280;26325;48.594;11.650;2022-10-18T05:15:09;97627.47;;;10.46
40624;BMP280;26325;48.594;11.650;2022-10-18T05:17:35;97615.44;;;10.58
40624;BMP280;26325;48.594;11.650;2022-10-18T05:20:00;97619.22;;;10.38
40624;BMP280;26325;48.594;11.650;2022-10-18T05:22:26;97626.47;;;10.47
40624;BMP280;26325;48.594;11.650;2022-10-18T05:24:53;97628.41;;;10.69
40624;BMP280;26325;48.594;11.650;2022-10-18T05:27:19;97629.44;;;10.97
40624;BMP280;26325;48.594;11.650;2022-10-18T05:29:44;97623.56;;;11.07
40624;BMP280;26325;48.594;11.650;2022-10-18T05:32:10;97621.09;;;11.30
40624;BMP280;26325;48.594;11.650;2022-10-18T05:34:35;97618.72;;;11.68
40624;BMP280;26325;48.594;11.650;2022-10-18T05:37:01;97613.06;;;11.49
40624;BMP280;26325;48.594;11.650;2022-10-18T05:39:26;97617.16;;;11.67
40624;BMP280;26325;48.594;11.650;2022-10-18T05:41:52;97616.31;;;11.96
40624;BMP280;26325;48.594;11.650;2022-10-18T05:44:21;97620.66;;;11.84
40624;BMP280;26325;48.594;11.650;2022-10-18T05:46:46;97617.97;;;11.90
40624;BMP280;26325;48.594;11.650;2022-10-18T05:49:12;97627.81;;;11.60
40624;BMP280;26325;48.594;11.650;2022-10-18T05:51:37;97629.25;;;11.27
40624;BMP280;26325;48.594;11.650;2022-10-18T05:54:05;97637.44;;;11.24
40624;BMP280;26325;48.594;11.650;2022-10-18T05:56:32;97629.44;;;11.14
40624;BMP280;26325;48.594;11.650;2022-10-18T05:58:58;97636.28;;;11.38
40624;BMP280;26325;48.594;11.650;2022-10-18T06:01:24;97626.56;;;11.62
40624;BMP280;26325;48.594;11.650;2022-10-18T06:03:49;97625.22;;;11.60
40624;BMP280;26325;48.594;11.650;2022-10-18T06:06:15;97622.09;;;11.69
40624;BMP280;26325;48.594;11.650;2022-10-18T06:08:43;97632.81;;;11.83
40624;BMP280;26325;48.594;11.650;2022-10-18T06:11:13;97636.47;;;12.38
40624;BMP280;26325;48.594;11.650;2022-10-18T06:13:42;97632.59;;;12.41
40624;BMP280;26325;48.594;11.650;2022-10-18T06:16:08;97638.22;;;12.49
40624;BMP280;26325;48.594;11.650;2022-10-18T06:18:34;97639.94;;;12.66
40624;BMP280;26325;48.594;11.650;2022-10-18T06:21:04;97656.56;;;12.93
40624;BMP280;26325;48.594;11.650;2022-10-18T06:23:29;97645.59;;;13.13
40624;BMP280;26325;48.594;11.650;2022-10-18T06:26:00;97644.47;;;13.09
40624;BMP280;26325;48.594;11.650;2022-10-18T06:28:26;97651.50;;;13.25
40624;BMP280;26325;48.594;11.650;2022-10-18T06:30:55;97660.03;;;13.36
40624;BMP280;26325;48.594;11.650;2022-10-18T06:33:21;97651.78;;;13.67
40624;BMP280;26325;48.594;11.650;2022-10-18T06:36:00;97650.59;;;13.58
40624;BMP280;26325;48.594;11.650;2022-10-18T06:38:27;97669.16;;;13.50
40624;BMP280;26325;48.594;11.650;2022-10-18T06:40:53;97675.06;;;13.34
40624;BMP280;26325;48.594;11.650;2022-10-18T06:43:19;97680.47;;;13.60
40624;BMP280;26325;48.594;11.650;2022-10-18T06:45:47;97673.88;;;13.69
40624;BMP280;26325;48.594;11.650;2022-10-18T06:48:12;97689.38;;;13.37
40624;BMP280;26325;48.594;11.650;2022-10-18T06:50:38;97684.03;;;13.43
40624;BMP280;26325;48.594;11.650;2022-10-18T06:53:03;97678.84;;;13.43
40624;BMP280;26325;48.594;11.650;2022-10-18T06:55:30;97683.75;;;13.40
40624;BMP280;26325;48.594;11.650;2022-10-18T06:57:58;97684.59;;;13.72
40624;BMP280;26325;48.594;11.650;2022-10-18T07:00:24;97669.66;;;13.79
40624;BMP280;26325;48.594;11.650;2022-10-18T07:02:50;97660.97;;;13.58
40624;BMP280;26325;48.594;11.650;2022-10-18T07:05:15;97671.69;;;14.05
40624;BMP280;26325;48.594;11.650;2022-10-18T07:07:41;97671.06;;;14.30
40624;BMP280;26325;48.594;11.650;2022-10-18T07:10:07;97686.09;;;14.28
40624;BMP280;26325;48.594;11.650;2022-10-18T07:12:32;97681.22;;;14.15
40624;BMP280;26325;48.594;11.650;2022-10-18T07:15:01;97680.25;;;14.37
40624;BMP280;26325;48.594;11.650;2022-10-18T07:17:26;97680.25;;;14.53
40624;BMP280;26325;48.594;11.650;2022-10-18T07:19:52;97684.31;;;14.66
40624;BMP280;26325;48.594;11.650;2022-10-18T07:22:17;97664.91;;;14.73
40624;BMP280;26325;48.594;11.650;2022-10-18T07:24:43;97677.75;;;14.95
40624;BMP280;26325;48.594;11.650;2022-10-18T07:27:08;97676.50;;;14.82
40624;BMP280;26325;48.594;11.650;2022-10-18T07:29:36;97679.06;;;14.98
40624;BMP280;26325;48.594;11.650;2022-10-18T07:32:05;97660.56;;;15.15
40624;BMP280;26325;48.594;11.650;2022-10-18T07:34:30;97668.22;;;14.85
40624;BMP280;26325;48.594;11.650;2022-10-18T07:36:56;97662.94;;;15.17
40624;BMP280;26325;48.594;11.650;2022-10-18T07:39:21;97676.44;;;15.14
40624;BMP280;26325;48.594;11.650;2022-10-18T07:41:47;97674.06;;;15.33
40624;BMP280;26325;48.594;11.650;2022-10-18T07:44:14;97670.25;;;15.66
40624;BMP280;26325;48.594;11.650;2022-10-18T07:46:40;97662.34;;;15.57
40624;BMP280;26325;48.594;11.650;2022-10-18T07:49:05;97669.78;;;16.26
40624;BMP280;26325;48.594;11.650;2022-10-18T07:51:31;97668.63;;;16.83
40624;BMP280;26325;48.594;11.650;2022-10-18T07:53:57;97665.28;;;17.72
40624;BMP280;26325;48.594;11.650;2022-10-18T07:56:23;97671.91;;;18.43
40624;BMP280;26325;48.594;11.650;2022-10-18T07:58:53;97671.91;;;18.77
40624;BMP280;26325;48.594;11.650;2022-10-18T08:01:24;97671.06;;;18.96
40624;BMP280;26325;48.594;11.650;2022-10-18T08:03:50;97676.19;;;19.30
40624;BMP280;26325;48.594;11.650;2022-10-18T08:06:17;97671.59;;;19.69
40624;BMP280;26325;48.594;11.650;2022-10-18T08:08:44;97677.25;;;19.86
40624;BMP280;26325;48.594;11.650;2022-10-18T08:11:15;97676.63;;;20.36
40624;BMP280;26325;48.594;11.650;2022-10-18T08:13:41;97679.59;;;21.54
40624;BMP280;26325;48.594;11.650;2022-10-18T08:16:36;97685.53;;;22.36
40624;BMP280;26325;48.594;11.650;2022-10-18T08:19:01;97686.53;;;22.04
40624;BMP280;26325;48.594;11.650;2022-10-18T08:21:27;97686.97;;;21.06
40624;BMP280;26325;48.594;11.650;2022-10-18T08:23:52;97681.22;;;21.04
40624;BMP280;26325;48.594;11.650;2022-10-18T08:26:21;97674.22;;;20.95
40624;BMP280;26325;48.594;11.650;2022-10-18T08:28:48;97665.81;;;20.70
40624;BMP280;26325;48.594;11.650;2022-10-18T08:31:16;97659.81;;;20.93
40624;BMP280;26325;48.594;11.650;2022-10-18T08:33:44;97645.56;;;20.48
40624;BMP280;26325;48.594;11.650;2022-10-18T08:36:12;97644.91;;;20.61
40624;BMP280;26325;48.594;11.650;2022-10-18T08:38:41;97656.66;;;20.91
40624;BMP280;26325;48.594;11.650;2022-10-18T08:43:42;97670.84;;;20.34
40624;BMP280;26325;48.594;11.650;2022-10-18T08:46:10;97667.78;;;20.22
40624;BMP280;26325;48.594;11.650;2022-10-18T08:48:43;97669.88;;;19.88
40624;BMP280;26325;48.594;11.650;2022-10-18T08:51:26;97668.81;;;19.94
40624;BMP280;26325;48.594;11.650;2022-10-18T08:54:15;97666.19;;;19.37
40624;BMP280;26325;48.594;11.650;2022-10-18T08:56:45;97669.47;;;20.09
40624;BMP280;26325;48.594;11.650;2022-10-18T08:59:15;97679.66;;;20.48
40624;BMP280;26325;48.594;11.650;2022-10-18T09:01:59;97682.19;;;20.85
40624;BMP280;26325;48.594;11.650;2022-10-18T09:10:19;97677.03;;;23.41
40624;BMP280;26325;48.594;11.650;2022-10-18T09:15:55;97687.13;;;25.54
40624;BMP280;26325;48.594;11.650;2022-10-18T09:19:25;97672.97;;;22.91
40624;BMP280;26325;48.594;11.650;2022-10-18T09:21:51;97692.03;;;23.14
40624;BMP280;26325;48.594;11.650;2022-10-18T09:26:49;97690.03;;;22.49
40624;BMP280;26325;48.594;11.650;2022-10-18T09:32:17;97683.16;;;23.50
40624;BMP280;26325;48.594;11.650;2022-10-18T09:34:50;97680.94;;;24.05
40624;BMP280;26325;48.594;11.650;2022-10-18T09:37:18;97670.75;;;24.11
40624;BMP280;26325;48.594;11.650;2022-10-18T09:39:44;97684.84;;;23.94
40624;BMP280;26325;48.594;11.650;2022-10-18T09:42:30;97675.31;;;24.41
40624;BMP280;26325;48.594;11.650;2022-10-18T09:45:17;97666.97;;;24.04
40624;BMP280;26325;48.594;11.650;2022-10-18T09:47:46;97664.13;;;23.53
40624;BMP280;26325;48.594;11.650;2022-10-18T09:50:22;97664.88;;;22.56
40624;BMP280;26325;48.594;11.650;2022-10-18T09:56:04;97672.44;;;23.33
40624;BMP280;26325;48.594;11.650;2022-10-18T09:58:48;97671.66;;;24.71
40624;BMP280;26325;48.594;11.650;2022-10-18T10:01:18;97660.25;;;25.77
40624;BMP280;26325;48.594;11.650;2022-10-18T10:03:45;97649.22;;;26.08
40624;BMP280;26325;48.594;11.650;2022-10-18T10:08:36;97658.25;;;25.98
40624;BMP280;26325;48.594;11.650;2022-10-18T10:13:51;97649.84;;;25.80
40624;BMP280;26325;48.594;11.650;2022-10-18T10:16:16;97639.88;;;26.27
40624;BMP280;26325;48.594;11.650;2022-10-18T10:18:42;97640.50;;;26.32
40624;BMP280;26325;48.594;11.650;2022-10-18T10:21:13;97627.72;;;25.76
40624;BMP280;26325;48.594;11.650;2022-10-18T10:23:52;97621.06;;;25.95
40624;BMP280;26325;48.594;11.650;2022-10-18T10:26:23;97632.78;;;25.40
40624;BMP280;26325;48.594;11.650;2022-10-18T10:28:54;97626.31;;;24.78
40624;BMP280;26325;48.594;11.650;2022-10-18T10:34:16;97627.28;;;26.07
40624;BMP280;26325;48.594;11.650;2022-10-18T10:36:51;97637.19;;;25.60
40624;BMP280;26325;48.594;11.650;2022-10-18T10:39:18;97624.03;;;25.94
40624;BMP280;26325;48.594;11.650;2022-10-18T10:41:49;97625.41;;;26.41
40624;BMP280;26325;48.594;11.650;2022-10-18T10:44:23;97616.09;;;27.25
40624;BMP280;26325;48.594;11.650;2022-10-18T10:46:49;97625.66;;;27.17
40624;BMP280;26325;48.594;11.650;2022-10-18T10:49:23;97619.97;;;27.27
40624;BMP280;26325;48.594;11.650;2022-10-18T10:52:02;97618.09;;;28.16
40624;BMP280;26325;48.594;11.650;2022-10-18T10:54:29;97624.03;;;28.01
40624;BMP280;26325;48.594;11.650;2022-10-18T10:57:02;97620.59;;;27.81
40624;BMP280;26325;48.594;11.650;2022-10-18T10:59:31;97619.66;;;28.17
40624;BMP280;26325;48.594;11.650;2022-10-18T11:04:43;97607.50;;;26.91
40624;BMP280;26325;48.594;11.650;2022-10-18T11:12:44;97606.53;;;27.60
40624;BMP280;26325;48.594;11.650;2022-10-18T11:25:26;97614.00;;;33.50
40624;BMP280;26325;48.594;11.650;2022-10-18T11:27:56;97653.97;;;37.52
40624;BMP280;26325;48.594;11.650;2022-10-18T11:33:46;97610.75;;;44.50
40624;BMP280;26325;48.594;11.650;2022-10-18T11:42:20;97609.44;;;46.39
40624;BMP280;26325;48.594;11.650;2022-10-18T11:50:24;97595.56;;;49.44
40624;BMP280;26325;48.594;11.650;2022-10-18T11:56:03;97597.06;;;45.02
40624;BMP280;26325;48.594;11.650;2022-10-18T12:06:33;97551.13;;;35.51
40624;BMP280;26325;48.594;11.650;2022-10-18T12:09:39;97541.13;;;33.12
40624;BMP280;26325;48.594;11.650;2022-10-18T12:12:17;97541.63;;;32.74
40624;BMP280;26325;48.594;11.650;2022-10-18T12:17:37;97532.72;;;31.03
40624;BMP280;26325;48.594;11.650;2022-10-18T12:20:45;97524.59;;;29.86
40624;BMP280;26325;48.594;11.650;2022-10-18T12:23:12;97535.72;;;29.38
40624;BMP280;26325;48.594;11.650;2022-10-18T12:25:40;97523.72;;;29.94
40624;BMP280;26325;48.594;11.650;2022-10-18T12:33:54;97541.13;;;32.91
40624;BMP280;26325;48.594;11.650;2022-10-18T12:38:48;97545.50;;;43.94
40624;BMP280;26325;48.594;11.650;2022-10-18T12:41:20;97549.22;;;46.63
40624;BMP280;26325;48.594;11.650;2022-10-18T12:43:52;97502.88;;;40.99
40624;BMP280;26325;48.594;11.650;2022-10-18T12:46:20;97537.16;;;41.95
40624;BMP280;26325;48.594;11.650;2022-10-18T12:49:02;97507.31;;;40.89
40624;BMP280;26325;48.594;11.650;2022-10-18T12:51:28;97497.53;;;38.07
40624;BMP280;26325;48.594;11.650;2022-10-18T13:09:26;97487.69;;;34.02
40624;BMP280;26325;48.594;11.650;2022-10-18T13:27:52;97487.13;;;35.66
40624;BMP280;26325;48.594;11.650;2022-10-18T13:30:40;97506.25;;;32.40
40624;BMP280;26325;48.594;11.650;2022-10-18T13:33:32;97515.44;;;37.56
40624;BMP280;26325;48.594;11.650;2022-10-18T13:39:02;97494.63;;;37.60
40624;BMP280;26325;48.594;11.650;2022-10-18T14:08:22;97522.00;;;35.60
40624;BMP280;26325;48.594;11.650;2022-10-18T14:11:18;97512.34;;;36.45
40624;BMP280;26325;48.594;11.650;2022-10-18T14:13:50;97505.44;;;37.47
40624;BMP280;26325;48.594;11.650;2022-10-18T14:16:39;97517.06;;;37.06
40624;BMP280;26325;48.594;11.650;2022-10-18T14:19:21;97501.25;;;36.60
40624;BMP280;26325;48.594;11.650;2022-10-18T14:22:14;97503.06;;;34.08
40624;BMP280;26325;48.594;11.650;2022-10-18T14:24:43;97486.03;;;33.08
40624;BMP280;26325;48.594;11.650;2022-10-18T14:27:19;97510.44;;;32.59
40624;BMP280;26325;48.594;11.650;2022-10-18T14:29:46;97509.22;;;31.95
40624;BMP280;26325;48.594;11.650;2022-10-18T14:32:27;97505.84;;;31.12
40624;BMP280;26325;48.594;11.650;2022-10-18T14:34:53;97511.97;;;31.98
40624;BMP280;26325;48.594;11.650;2022-10-18T14:37:49;97516.00;;;33.42
40624;BMP280;26325;48.594;11.650;2022-10-18T14:40:36;97519.34;;;33.93
40624;BMP280;26325;48.594;11.650;2022-10-18T14:43:14;97514.34;;;33.92
40624;BMP280;26325;48.594;11.650;2022-10-18T14:45:42;97519.09;;;33.44
40624;BMP280;26325;48.594;11.650;2022-10-18T14:48:21;97518.06;;;33.30
40624;BMP280;26325;48.594;11.650;2022-10-18T14:50:55;97534.41;;;32.78
40624;BMP280;26325;48.594;11.650;2022-10-18T14:53:26;97513.41;;;32.54
40624;BMP280;26325;48.594;11.650;2022-10-18T14:55:56;97493.34;;;31.31
40624;BMP280;26325;48.594;11.650;2022-10-18T14:58:27;97503.78;;;29.26
40624;BMP280;26325;48.594;11.650;2022-10-18T15:00:53;97498.38;;;27.37
40624;BMP280;26325;48.594;11.650;2022-10-18T15:03:19;97507.25;;;26.03
40624;BMP280;26325;48.594;11.650;2022-10-18T15:05:55;97514.56;;;25.73
40624;BMP280;26325;48.594;11.650;2022-10-18T15:08:24;97509.63;;;24.76
40624;BMP280;26325;48.594;11.650;2022-10-18T15:10:51;97516.44;;;23.66
40624;BMP280;26325;48.594;11.650;2022-10-18T15:13:16;97511.16;;;23.66
40624;BMP280;26325;48.594;11.650;2022-10-18T15:15:42;97509.22;;;23.37
40624;BMP280;26325;48.594;11.650;2022-10-18T15:18:22;97505.56;;;22.98
40624;BMP280;26325;48.594;11.650;2022-10-18T15:21:15;97506.56;;;22.89
40624;BMP280;26325;48.594;11.650;2022-10-18T15:23:43;97506.41;;;22.59
40624;BMP280;26325;48.594;11.650;2022-10-18T15:26:10;97506.00;;;22.66
40624;BMP280;26325;48.594;11.650;2022-10-18T15:28:41;97515.94;;;22.82
40624;BMP280;26325;48.594;11.650;2022-10-18T15:31:23;97509.16;;;22.23
40624;BMP280;26325;48.594;11.650;2022-10-18T15:33:49;97511.50;;;22.38
40624;BMP280;26325;48.594;11.650;2022-10-18T15:36:27;97512.22;;;22.43
40624;BMP280;26325;48.594;11.650;2022-10-18T15:39:07;97512.97;;;22.31
40624;BMP280;26325;48.594;11.650;2022-10-18T15:41:55;97506.56;;;22.36
40624;BMP280;26325;48.594;11.650;2022-10-18T15:44:27;97504.19;;;22.09
40624;BMP280;26325;48.594;11.650;2022-10-18T15:47:14;97507.84;;;21.95
40624;BMP280;26325;48.594;11.650;2022-10-18T15:52:33;97519.75;;;21.56
40624;BMP280;26325;48.594;11.650;2022-10-18T15:54:58;97520.06;;;21.37
40624;BMP280;26325;48.594;11.650;2022-10-18T15:57:24;97519.69;;;21.43
40624;BMP280;26325;48.594;11.650;2022-10-18T16:02:22;97527.44;;;20.94
40624;BMP280;26325;48.594;11.650;2022-10-18T16:04:48;97525.16;;;20.69
40624;BMP280;26325;48.594;11.650;2022-10-18T16:07:13;97523.19;;;20.57
40624;BMP280;26325;48.594;11.650;2022-10-18T16:09:39;97529.16;;;20.39
40624;BMP280;26325;48.594;11.650;2022-10-18T16:12:04;97514.56;;;20.28
40624;BMP280;26325;48.594;11.650;2022-10-18T16:14:35;97531.41;;;20.22
40624;BMP280;26325;48.594;11.650;2022-10-18T16:17:05;97527.81;;;20.14
40624;BMP280;26325;48.594;11.650;2022-10-18T16:19:32;97526.03;;;20.09
40624;BMP280;26325;48.594;11.650;2022-10-18T16:21:58;97525.06;;;20.01
40624;BMP280;26325;48.594;11.650;2022-10-18T16:24:23;97534.81;;;19.95
40624;BMP280;26325;48.594;11.650;2022-10-18T16:26:49;97536.50;;;19.82
40624;BMP280;26325;48.594;11.650;2022-10-18T16:29:16;97551.38;;;19.58
40624;BMP280;26325;48.594;11.650;2022-10-18T16:31:45;97537.94;;;19.65
40624;BMP280;26325;48.594;11.650;2022-10-18T16:34:11;97550.72;;;19.71
40624;BMP280;26325;48.594;11.650;2022-10-18T16:36:39;97541.88;;;19.62
40624;BMP280;26325;48.594;11.650;2022-10-18T16:39:06;97551.19;;;19.83
40624;BMP280;26325;48.594;11.650;2022-10-18T16:41:36;97554.94;;;19.72
40624;BMP280;26325;48.594;11.650;2022-10-18T16:44:01;97559.00;;;19.45
40624;BMP280;26325;48.594;11.650;2022-10-18T16:46:29;97564.13;;;19.22
40624;BMP280;26325;48.594;11.650;2022-10-18T16:48:55;97565.97;;;19.27
40624;BMP280;26325;48.594;11.650;2022-10-18T16:51:21;97578.09;;;19.03
40624;BMP280;26325;48.594;11.650;2022-10-18T16:53:47;97574.81;;;18.83
40624;BMP280;26325;48.594;11.650;2022-10-18T16:56:33;97574.75;;;18.98
40624;BMP280;26325;48.594;11.650;2022-10-18T16:58:59;97580.00;;;18.88
40624;BMP280;26325;48.594;11.650;2022-10-18T17:01:25;97583.22;;;18.61
40624;BMP280;26325;48.594;11.650;2022-10-18T17:03:53;97587.41;;;18.57
40624;BMP280;26325;48.594;11.650;2022-10-18T17:06:22;97591.13;;;18.31
40624;BMP280;26325;48.594;11.650;2022-10-18T17:08:49;97601.59;;;18.22